createdAt,value
2022-08-02T00:01:14.540Z,100427.52
2022-08-02T00:03:45.211Z,100433.13
2022-08-02T00:06:16.437Z,100428.42
2022-08-02T00:08:47.170Z,100430.77
2022-08-02T00:11:17.860Z,100425.42
2022-08-02T00:13:48.528Z,100426.59
2022-08-02T00:16:19.252Z,100426.38
2022-08-02T00:18:49.904Z,100425.61
2022-08-02T00:21:20.558Z,100426.45
2022-08-02T00:24:27.982Z,100429.78
2022-08-02T00:26:42.023Z,100426.17
2022-08-02T00:29:12.696Z,100426.70
2022-08-02T00:31:43.349Z,100430.52
2022-08-02T00:34:28.406Z,100431.61
2022-08-02T00:37:01.853Z,100431.57
2022-08-02T00:39:35.102Z,100427.85
2022-08-02T00:42:07.484Z,100432.55
2022-08-02T00:44:38.376Z,100431.16
2022-08-02T00:47:09.036Z,100431.99
2022-08-02T00:49:39.811Z,100437.54
2022-08-02T00:52:10.971Z,100433.36
2022-08-02T00:54:41.888Z,100434.48
2022-08-02T00:57:12.622Z,100436.71
2022-08-02T00:59:43.313Z,100434.88
2022-08-02T01:02:14.541Z,100433.77
2022-08-02T01:04:45.441Z,100434.34
2022-08-02T01:07:16.062Z,100430.84
2022-08-02T01:09:46.750Z,100431.05
2022-08-02T01:12:17.874Z,100431.27
2022-08-02T01:14:49.228Z,100433.41
2022-08-02T01:17:21.997Z,100435.51
2022-08-02T01:19:53.055Z,100436.57
2022-08-02T01:22:59.601Z,100435.00
2022-08-02T01:25:35.452Z,100434.48
2022-08-02T01:28:18.919Z,100431.86
2022-08-02T01:30:49.692Z,100427.46
2022-08-02T01:33:22.716Z,100429.54
2022-08-02T01:35:54.258Z,100425.10
2022-08-02T01:38:25.434Z,100424.52
2022-08-02T01:40:56.211Z,100426.55
2022-08-02T01:43:26.948Z,100426.14
2022-08-02T01:45:57.677Z,100427.80
2022-08-02T01:48:28.531Z,100425.46
2022-08-02T01:50:59.755Z,100424.95
2022-08-02T01:53:30.387Z,100421.78
2022-08-02T01:56:01.490Z,100426.23
2022-08-02T01:58:32.911Z,100427.73
2022-08-02T02:01:03.679Z,100426.51
2022-08-02T02:03:34.464Z,100428.45
2022-08-02T02:06:05.260Z,100429.79
2022-08-02T02:08:38.066Z,100431.52
2022-08-02T02:12:05.828Z,100435.27
2022-08-02T02:14:01.965Z,100433.41
2022-08-02T02:16:33.304Z,100435.35
2022-08-02T02:19:06.035Z,100434.41
2022-08-02T02:21:36.680Z,100435.06
2022-08-02T02:24:11.665Z,100435.15
2022-08-02T02:26:48.635Z,100433.98
2022-08-02T02:29:24.892Z,100430.77
2022-08-02T02:31:55.727Z,100428.85
2022-08-02T02:34:28.369Z,100431.75
2022-08-02T02:37:00.082Z,100434.86
2022-08-02T02:39:30.915Z,100432.23
2022-08-02T02:42:03.405Z,100428.65
2022-08-02T02:44:34.524Z,100427.14
2022-08-02T02:47:05.279Z,100430.21
2022-08-02T02:49:36.413Z,100432.66
2022-08-02T02:52:07.371Z,100434.92
2022-08-02T02:54:38.219Z,100431.61
2022-08-02T02:57:08.887Z,100432.63
2022-08-02T02:59:48.923Z,100438.69
2022-08-02T03:02:21.255Z,100444.27
2022-08-02T03:04:57.295Z,100446.83
2022-08-02T03:07:28.883Z,100448.21
2022-08-02T03:09:59.817Z,100448.80
2022-08-02T03:12:32.237Z,100448.36
2022-08-02T03:15:05.247Z,100453.77
2022-08-02T03:17:46.132Z,100451.90
2022-08-02T03:20:17.433Z,100454.64
2022-08-02T03:22:48.520Z,100457.48
2022-08-02T03:25:19.502Z,100458.17
2022-08-02T03:27:50.158Z,100460.84
2022-08-02T03:30:24.786Z,100458.34
2022-08-02T03:32:55.505Z,100462.67
2022-08-02T03:35:26.102Z,100466.20
2022-08-02T03:37:56.762Z,100469.63
2022-08-02T03:40:27.688Z,100469.85
2022-08-02T03:42:58.818Z,100468.96
2022-08-02T03:45:29.724Z,100474.20
2022-08-02T03:48:00.523Z,100472.31
2022-08-02T03:50:31.149Z,100480.30
2022-08-02T03:53:01.887Z,100485.48
2022-08-02T03:55:32.561Z,100486.55
2022-08-02T03:58:03.235Z,100485.88
2022-08-02T04:00:34.022Z,100486.45
2022-08-02T04:03:04.654Z,100487.59
2022-08-02T04:05:35.408Z,100493.60
2022-08-02T04:08:36.354Z,100492.77
2022-08-02T04:11:25.517Z,100496.20
2022-08-02T04:13:56.881Z,100501.69
2022-08-02T04:16:29.638Z,100503.58
2022-08-02T04:19:02.217Z,100509.03
2022-08-02T04:21:49.046Z,100510.46
2022-08-02T04:24:25.117Z,100512.71
2022-08-02T04:27:06.678Z,100513.41
2022-08-02T04:29:48.610Z,100513.95
2022-08-02T04:32:19.539Z,100516.25
2022-08-02T04:35:17.781Z,100514.02
2022-08-02T04:38:08.670Z,100516.21
2022-08-02T04:40:31.535Z,100511.20
2022-08-02T04:43:02.186Z,100515.33
2022-08-02T04:45:32.884Z,100516.50
2022-08-02T04:48:05.795Z,100518.98
2022-08-02T04:50:37.011Z,100518.88
2022-08-02T04:53:07.794Z,100522.55
2022-08-02T04:55:39.059Z,100530.68
2022-08-02T04:58:30.131Z,100532.92
2022-08-02T05:01:00.482Z,100539.28
2022-08-02T05:03:31.207Z,100538.34
2022-08-02T05:06:01.886Z,100538.55
2022-08-02T05:08:32.699Z,100533.95
2022-08-02T05:11:03.389Z,100527.11
2022-08-02T05:13:34.141Z,100528.88
2022-08-02T05:16:31.034Z,100528.01
2022-08-02T05:19:03.071Z,100531.81
2022-08-02T05:21:34.251Z,100533.21
2022-08-02T05:24:05.157Z,100536.86
2022-08-02T05:26:35.820Z,100537.73
2022-08-02T05:29:06.479Z,100538.05
2022-08-02T05:31:37.175Z,100538.98
2022-08-02T05:34:11.863Z,100542.32
2022-08-02T05:36:43.077Z,100545.16
2022-08-02T05:39:18.767Z,100545.40
2022-08-02T05:41:49.873Z,100542.65
2022-08-02T05:44:20.602Z,100542.88
2022-08-02T05:46:51.295Z,100542.98
2022-08-02T05:49:22.066Z,100543.94
2022-08-02T05:51:54.163Z,100547.98
2022-08-02T05:54:25.595Z,100549.91
2022-08-02T05:56:57.623Z,100556.73
2022-08-02T05:59:34.574Z,100558.70
2022-08-02T06:02:05.985Z,100562.80
2022-08-02T06:04:45.811Z,100562.42
2022-08-02T06:07:16.445Z,100565.61
2022-08-02T06:09:47.154Z,100566.98
2022-08-02T06:12:18.123Z,100567.00
2022-08-02T06:14:52.592Z,100570.20
2022-08-02T06:17:25.443Z,100578.12
2022-08-02T06:19:56.685Z,100575.98
2022-08-02T06:22:37.545Z,100576.95
2022-08-02T06:25:11.718Z,100582.11
2022-08-02T06:28:01.119Z,100581.15
2022-08-02T06:30:33.387Z,100581.21
2022-08-02T06:33:04.329Z,100582.16
2022-08-02T06:35:35.926Z,100580.03
2022-08-02T06:38:06.654Z,100582.02
2022-08-02T06:40:37.902Z,100582.84
2022-08-02T06:43:14.437Z,100582.27
2022-08-02T06:45:45.145Z,100581.84
2022-08-02T06:48:15.921Z,100581.27
2022-08-02T06:50:46.559Z,100580.41
2022-08-02T06:53:17.313Z,100580.03
2022-08-02T06:55:47.982Z,100581.17
2022-08-02T06:58:18.662Z,100577.79
2022-08-02T07:00:49.460Z,100580.44
2022-08-02T07:03:20.137Z,100575.07
2022-08-02T07:05:50.960Z,100574.59
2022-08-02T07:08:21.809Z,100572.92
2022-08-02T07:10:52.498Z,100576.75
2022-08-02T07:13:23.197Z,100575.21
2022-08-02T07:15:53.903Z,100577.62
2022-08-02T07:18:25.102Z,100577.12
2022-08-02T07:20:55.799Z,100581.52
2022-08-02T07:23:26.616Z,100578.10
2022-08-02T07:26:02.642Z,100580.58
2022-08-02T07:28:34.286Z,100581.09
2022-08-02T07:31:05.119Z,100578.95
2022-08-02T07:33:37.710Z,100574.66
2022-08-02T07:36:17.030Z,100575.67
2022-08-02T07:38:53.631Z,100577.61
2022-08-02T07:41:24.287Z,100579.39
2022-08-02T07:43:54.876Z,100576.63
2022-08-02T07:46:25.844Z,100573.61
2022-08-02T07:48:59.320Z,100576.98
2022-08-02T07:51:31.818Z,100573.16
2022-08-02T07:54:04.888Z,100567.54
2022-08-02T07:56:35.720Z,100570.21
2022-08-02T07:59:06.593Z,100567.14
2022-08-02T08:01:37.359Z,100566.10
2022-08-02T08:04:10.658Z,100569.79
2022-08-02T08:06:41.365Z,100571.35
2022-08-02T08:09:12.043Z,100575.75
2022-08-02T08:11:42.795Z,100578.78
2022-08-02T08:14:16.631Z,100576.56
2022-08-02T08:16:47.882Z,100576.17
2022-08-02T08:19:18.524Z,100576.66
2022-08-02T08:21:49.248Z,100574.42
2022-08-02T08:24:22.388Z,100574.82
2022-08-02T08:26:53.032Z,100573.53
2022-08-02T08:29:24.333Z,100574.38
2022-08-02T08:31:54.946Z,100569.65
2022-08-02T08:34:27.276Z,100572.05
2022-08-02T08:36:57.958Z,100569.50
2022-08-02T08:39:28.543Z,100567.39
2022-08-02T08:41:59.307Z,100561.52
2022-08-02T08:44:30.041Z,100559.36
2022-08-02T08:47:01.691Z,100562.55
2022-08-02T08:49:33.393Z,100562.95
2022-08-02T08:52:05.647Z,100559.96
2022-08-02T08:54:37.316Z,100562.98
2022-08-02T08:57:08.452Z,100562.55
2022-08-02T08:59:39.501Z,100560.90
2022-08-02T09:02:21.530Z,100565.04
2022-08-02T09:04:55.129Z,100563.45
2022-08-02T09:07:26.260Z,100559.21
2022-08-02T09:09:57.220Z,100565.48
2022-08-02T09:12:28.075Z,100565.86
2022-08-02T09:14:58.984Z,100560.19
2022-08-02T09:17:29.651Z,100556.10
2022-08-02T09:20:10.231Z,100558.55
2022-08-02T09:22:41.376Z,100555.26
2022-08-02T09:25:12.277Z,100553.23
2022-08-02T09:27:43.022Z,100548.48
2022-08-02T09:30:16.939Z,100544.63
2022-08-02T09:32:48.266Z,100538.30
2022-08-02T09:36:06.746Z,100541.44
2022-08-02T09:38:25.842Z,100537.12
2022-08-02T09:40:57.368Z,100534.61
2022-08-02T09:44:03.846Z,100537.59
2022-08-02T09:46:33.637Z,100532.80
2022-08-02T09:49:05.460Z,100533.05
2022-08-02T09:51:36.930Z,100530.20
2022-08-02T09:54:09.320Z,100528.65
2022-08-02T09:56:44.317Z,100530.19
2022-08-02T09:59:15.650Z,100524.10
2022-08-02T10:01:50.547Z,100522.70
2022-08-02T10:04:24.711Z,100526.96
2022-08-02T10:06:55.751Z,100525.20
2022-08-02T10:09:28.775Z,100524.56
2022-08-02T10:11:59.506Z,100522.67
2022-08-02T10:14:30.111Z,100520.27
2022-08-02T10:17:00.780Z,100514.75
2022-08-02T10:20:00.943Z,100512.77
2022-08-02T10:22:22.319Z,100513.90
2022-08-02T10:24:53.124Z,100514.73
2022-08-02T10:27:25.322Z,100512.30
2022-08-02T10:29:56.122Z,100514.56
2022-08-02T10:32:28.457Z,100512.97
2022-08-02T10:35:19.074Z,100513.63
2022-08-02T10:37:52.102Z,100508.67
2022-08-02T10:40:27.063Z,100508.67
2022-08-02T10:43:00.921Z,100504.77
2022-08-02T10:45:31.949Z,100507.85
2022-08-02T10:48:06.208Z,100504.96
2022-08-02T10:50:55.727Z,100504.39
2022-08-02T10:53:27.386Z,100498.63
2022-08-02T10:55:58.594Z,100494.88
2022-08-02T10:58:30.450Z,100493.70
2022-08-02T11:01:04.917Z,100493.77
2022-08-02T11:03:40.991Z,100493.16
2022-08-02T11:06:25.350Z,100494.30
2022-08-02T11:09:32.462Z,100494.14
2022-08-02T11:12:04.878Z,100489.64
2022-08-02T11:14:36.526Z,100490.23
2022-08-02T11:17:14.322Z,100487.27
2022-08-02T11:20:02.232Z,100484.95
2022-08-02T11:22:32.944Z,100485.73
2022-08-02T11:25:10.112Z,100485.92
2022-08-02T11:27:40.823Z,100479.90
2022-08-02T11:30:14.908Z,100481.23
2022-08-02T11:32:45.705Z,100481.07
2022-08-02T11:35:16.307Z,100478.90
2022-08-02T11:37:47.095Z,100479.92
2022-08-02T11:40:19.078Z,100475.00
2022-08-02T11:42:51.291Z,100478.30
2022-08-02T11:45:29.333Z,100480.46
2022-08-02T11:48:05.478Z,100476.70
2022-08-02T11:50:39.175Z,100477.08
2022-08-02T11:53:16.804Z,100474.66
2022-08-02T11:55:47.424Z,100471.52
2022-08-02T11:58:18.142Z,100468.02
2022-08-02T12:00:49.473Z,100469.77
2022-08-02T12:03:21.353Z,100464.52
2022-08-02T12:06:05.184Z,100461.98
2022-08-02T12:08:38.270Z,100460.83
2022-08-02T12:11:08.902Z,100467.05
2022-08-02T12:13:56.524Z,100463.39
2022-08-02T12:16:51.783Z,100469.15
2022-08-02T12:19:26.612Z,100467.09
2022-08-02T12:22:14.117Z,100466.66
2022-08-02T12:24:45.792Z,100468.09
2022-08-02T12:27:32.836Z,100468.44
2022-08-02T12:30:06.043Z,100463.84
2022-08-02T12:32:37.012Z,100460.73
2022-08-02T12:35:11.744Z,100458.66
2022-08-02T12:37:43.814Z,100457.20
2022-08-02T12:40:25.159Z,100455.02
2022-08-02T12:42:58.710Z,100453.64
2022-08-02T12:45:40.858Z,100450.36
2022-08-02T12:48:12.719Z,100453.86
2022-08-02T12:50:44.067Z,100451.75
2022-08-02T12:53:16.094Z,100451.89
2022-08-02T12:55:59.874Z,100454.63
2022-08-02T12:58:38.856Z,100454.77
2022-08-02T13:01:09.545Z,100450.06
2022-08-02T13:04:07.954Z,100451.11
2022-08-02T13:06:40.893Z,100446.38
2022-08-02T13:09:17.318Z,100439.23
2022-08-02T13:11:48.287Z,100436.75
2022-08-02T13:14:19.095Z,100436.56
2022-08-02T13:16:49.779Z,100438.31
2022-08-02T13:19:20.441Z,100444.52
2022-08-02T13:22:01.995Z,100441.94
2022-08-02T13:24:40.076Z,100435.85
2022-08-02T13:27:25.672Z,100438.23
2022-08-02T13:29:56.722Z,100436.30
2022-08-02T13:32:28.153Z,100438.81
2022-08-02T13:34:59.334Z,100439.27
2022-08-02T13:37:29.968Z,100434.72
2022-08-02T13:40:20.581Z,100438.23
2022-08-02T13:42:51.752Z,100440.13
2022-08-02T13:45:22.655Z,100442.42
2022-08-02T13:48:04.029Z,100442.52
2022-08-02T13:50:36.690Z,100442.70
2022-08-02T13:53:07.396Z,100440.39
2022-08-02T13:55:38.811Z,100441.11
2022-08-02T13:58:14.256Z,100442.77
2022-08-02T14:00:45.020Z,100440.34
2022-08-02T14:03:15.781Z,100436.09
2022-08-02T14:05:48.501Z,100433.91
2022-08-02T14:08:20.322Z,100430.81
2022-08-02T14:10:51.329Z,100435.38
2022-08-02T14:13:21.960Z,100434.36
2022-08-02T14:15:52.601Z,100431.80
2022-08-02T14:18:23.344Z,100434.88
2022-08-02T14:20:54.305Z,100438.46
2022-08-02T14:23:49.037Z,100440.98
2022-08-02T14:26:16.177Z,100442.06
2022-08-02T14:28:58.603Z,100441.61
2022-08-02T14:31:29.294Z,100438.27
2022-08-02T14:34:00.126Z,100438.33
2022-08-02T14:36:30.831Z,100436.55
2022-08-02T14:39:02.208Z,100433.52
2022-08-02T14:41:59.801Z,100431.02
2022-08-02T14:44:27.340Z,100429.15
2022-08-02T14:46:58.269Z,100428.57
2022-08-02T14:49:29.039Z,100426.80
2022-08-02T14:51:59.787Z,100427.37
2022-08-02T14:54:32.112Z,100429.86
2022-08-02T14:57:04.168Z,100432.34
2022-08-02T14:59:34.823Z,100435.48
2022-08-02T15:02:05.730Z,100436.86
2022-08-02T15:04:42.701Z,100432.10
2022-08-02T15:07:15.504Z,100432.08
2022-08-02T15:09:46.205Z,100433.41
2022-08-02T15:12:17.151Z,100429.52
2022-08-02T15:14:48.070Z,100423.61
2022-08-02T15:17:18.802Z,100421.46
2022-08-02T15:19:57.931Z,100424.36
2022-08-02T15:22:31.034Z,100423.30
2022-08-02T15:25:02.846Z,100422.10
2022-08-02T15:27:33.427Z,100420.48
2022-08-02T15:30:09.132Z,100424.70
2022-08-02T15:32:39.890Z,100423.26
2022-08-02T15:35:23.516Z,100426.06
2022-08-02T15:37:54.406Z,100425.52
2022-08-02T15:40:25.134Z,100433.33
2022-08-02T15:42:55.755Z,100430.05
2022-08-02T15:45:27.995Z,100432.06
2022-08-02T15:47:58.658Z,100436.01
2022-08-02T15:50:29.444Z,100434.25
2022-08-02T15:53:00.196Z,100433.34
2022-08-02T15:55:40.035Z,100441.41
2022-08-02T15:58:22.421Z,100441.10
2022-08-02T16:00:53.822Z,100440.73
2022-08-02T16:03:24.593Z,100439.45
2022-08-02T16:05:55.239Z,100440.26
2022-08-02T16:08:26.041Z,100448.97
2022-08-02T16:10:57.185Z,100449.38
2022-08-02T16:13:52.884Z,100453.02
2022-08-02T16:16:34.625Z,100454.23
2022-08-02T16:19:45.976Z,100458.14
2022-08-02T16:21:57.374Z,100457.14
2022-08-02T16:24:28.180Z,100460.05
2022-08-02T16:26:59.020Z,100460.94
2022-08-02T16:29:33.392Z,100463.30
2022-08-02T16:32:04.841Z,100467.42
2022-08-02T16:34:50.686Z,100468.51
2022-08-02T16:37:27.727Z,100469.02
2022-08-02T16:40:18.406Z,100469.59
2022-08-02T16:42:50.523Z,100470.39
2022-08-02T16:48:12.746Z,100472.79
2022-08-02T16:50:46.653Z,100471.84
2022-08-02T16:53:27.459Z,100474.68
2022-08-02T16:56:08.125Z,100478.10
2022-08-02T16:58:38.869Z,100478.10
2022-08-02T17:01:15.805Z,100479.81
2022-08-02T17:03:56.281Z,100484.10
2022-08-02T17:06:28.627Z,100486.20
2022-08-02T17:08:59.919Z,100488.98
2022-08-02T17:11:30.658Z,100488.64
2022-08-02T17:14:01.868Z,100491.65
2022-08-02T17:16:32.543Z,100496.27
2022-08-02T17:19:03.249Z,100497.81
2022-08-02T17:21:34.157Z,100501.94
2022-08-02T17:24:08.192Z,100501.96
2022-08-02T17:26:55.844Z,100503.50
2022-08-02T17:29:26.619Z,100504.74
2022-08-02T17:32:09.025Z,100507.59
2022-08-02T17:34:49.092Z,100509.42
2022-08-02T17:37:31.805Z,100510.41
2022-08-02T17:40:03.616Z,100513.73
2022-08-02T17:42:35.265Z,100520.05
2022-08-02T17:45:25.022Z,100522.11
2022-08-02T17:48:04.647Z,100521.52
2022-08-02T17:50:36.285Z,100526.52
2022-08-02T17:53:07.094Z,100528.38
2022-08-02T17:55:42.415Z,100530.86
2022-08-02T17:58:13.522Z,100536.30
2022-08-02T18:00:44.923Z,100540.30
2022-08-02T18:03:15.949Z,100544.55
2022-08-02T18:05:53.456Z,100545.61
2022-08-02T18:08:26.290Z,100552.74
2022-08-02T18:10:58.500Z,100557.08
2022-08-02T18:13:33.085Z,100559.61
2022-08-02T18:16:21.082Z,100565.90
2022-08-02T18:18:52.293Z,100567.42
2022-08-02T18:21:23.213Z,100573.27
2022-08-02T18:23:58.479Z,100579.48
2022-08-02T18:26:30.358Z,100586.73
2022-08-02T18:29:03.649Z,100590.75
2022-08-02T18:31:39.659Z,100591.66
2022-08-02T18:34:25.236Z,100596.33
2022-08-02T18:36:56.016Z,100597.30
2022-08-02T18:39:26.737Z,100599.27
2022-08-02T18:42:03.894Z,100602.34
2022-08-02T18:44:34.658Z,100602.45
2022-08-02T18:47:05.848Z,100606.39
2022-08-02T18:49:46.614Z,100606.52
2022-08-02T18:52:31.289Z,100608.73
2022-08-02T18:55:05.192Z,100617.66
2022-08-02T18:58:17.567Z,100620.98
2022-08-02T19:00:29.400Z,100617.52
2022-08-02T19:03:00.047Z,100621.64
2022-08-02T19:05:52.373Z,100626.94
2022-08-02T19:08:25.381Z,100630.88
2022-08-02T19:10:57.303Z,100629.63
2022-08-02T19:13:28.264Z,100629.61
2022-08-02T19:15:58.964Z,100631.62
2022-08-02T19:18:30.052Z,100630.44
2022-08-02T19:21:05.214Z,100633.36
2022-08-02T19:23:36.844Z,100641.16
2022-08-02T19:26:25.880Z,100645.39
2022-08-02T19:28:56.806Z,100647.13
2022-08-02T19:31:34.772Z,100652.87
2022-08-02T19:34:20.616Z,100655.85
2022-08-02T19:36:55.961Z,100656.02
2022-08-02T19:39:26.919Z,100652.99
2022-08-02T19:41:57.736Z,100658.20
2022-08-02T19:44:29.547Z,100658.85
2022-08-02T19:47:00.564Z,100663.25
2022-08-02T19:49:40.211Z,100663.81
2022-08-02T19:52:21.621Z,100668.00
2022-08-02T19:54:54.899Z,100666.14
2022-08-02T19:57:27.080Z,100666.77
2022-08-02T19:59:59.303Z,100664.30
2022-08-02T20:02:30.053Z,100664.29
2022-08-02T20:05:08.040Z,100662.67
2022-08-02T20:07:54.968Z,100665.68
2022-08-02T20:10:27.661Z,100662.73
2022-08-02T20:12:58.410Z,100660.67
2022-08-02T20:15:56.556Z,100659.80
2022-08-02T20:18:26.617Z,100658.16
2022-08-02T20:20:57.979Z,100655.84
2022-08-02T20:23:32.097Z,100661.52
2022-08-02T20:26:06.422Z,100662.20
2022-08-02T20:28:40.210Z,100658.92
2022-08-02T20:31:10.905Z,100661.14
2022-08-02T20:33:56.133Z,100662.80
2022-08-02T20:36:27.714Z,100669.68
2022-08-02T20:38:58.314Z,100670.93
2022-08-02T20:41:37.029Z,100672.09
2022-08-02T20:44:30.639Z,100672.45
2022-08-02T20:47:02.205Z,100669.92
2022-08-02T20:49:40.803Z,100674.52
2022-08-02T20:52:23.278Z,100680.02
2022-08-02T20:54:55.086Z,100680.07
2022-08-02T20:57:48.586Z,100682.16
2022-08-02T21:00:17.242Z,100681.16
2022-08-02T21:02:50.680Z,100684.59
2022-08-02T21:05:43.806Z,100683.41
2022-08-02T21:08:14.889Z,100685.34
2022-08-02T21:10:51.949Z,100688.18
2022-08-02T21:13:26.156Z,100687.90
2022-08-02T21:16:04.545Z,100689.59
2022-08-02T21:18:41.261Z,100692.20
2022-08-02T21:21:12.200Z,100692.13
2022-08-02T21:23:48.769Z,100694.17
2022-08-02T21:29:15.693Z,100698.50
2022-08-02T21:31:46.455Z,100699.70
2022-08-02T21:34:26.644Z,100698.09
2022-08-02T21:36:58.117Z,100697.06
2022-08-02T21:39:28.994Z,100697.94
2022-08-02T21:41:59.831Z,100702.04
2022-08-02T21:44:30.631Z,100708.54
2022-08-02T21:47:01.289Z,100708.86
2022-08-02T21:50:08.506Z,100712.63
2022-08-02T21:52:25.228Z,100714.72
2022-08-02T21:54:57.029Z,100711.44
2022-08-02T21:57:34.573Z,100711.05
2022-08-02T22:00:07.252Z,100710.80
2022-08-02T22:02:37.979Z,100714.66
2022-08-02T22:05:13.356Z,100716.98
2022-08-02T22:07:45.717Z,100721.35
2022-08-02T22:10:16.729Z,100718.29
2022-08-02T22:12:50.016Z,100719.13
2022-08-02T22:15:25.926Z,100715.19
2022-08-02T22:18:07.047Z,100711.69
2022-08-02T22:20:45.183Z,100710.61
2022-08-02T22:23:22.479Z,100711.09
2022-08-02T22:26:08.479Z,100709.28
2022-08-02T22:28:51.160Z,100713.95
2022-08-02T22:31:40.941Z,100714.00
2022-08-02T22:34:36.993Z,100713.35
2022-08-02T22:37:07.305Z,100717.39
2022-08-02T22:39:38.455Z,100720.23
2022-08-02T22:42:29.144Z,100713.20
2022-08-02T22:45:00.257Z,100715.08
2022-08-02T22:47:38.542Z,100713.09
2022-08-02T22:50:11.937Z,100713.14
2022-08-02T22:52:46.821Z,100716.92
2022-08-02T22:55:21.473Z,100712.51
2022-08-02T22:57:57.054Z,100716.04
2022-08-02T22:58:34.617Z,100472.34
2022-08-02T22:59:10.572Z,100693.02
2022-08-02T23:00:28.229Z,100713.48
2022-08-02T23:02:58.981Z,100707.21
2022-08-02T23:05:29.722Z,100709.77
2022-08-02T23:08:00.435Z,100707.89
2022-08-02T23:10:31.088Z,100707.54
2022-08-02T23:13:01.754Z,100704.33
2022-08-02T23:15:52.484Z,100701.78
2022-08-02T23:18:40.788Z,100698.17
2022-08-02T23:21:11.576Z,100697.13
2022-08-02T23:23:42.180Z,100699.61
2022-08-02T23:26:12.841Z,100696.31
2022-08-02T23:28:43.612Z,100695.61
2022-08-02T23:31:33.836Z,100699.00
2022-08-02T23:34:08.985Z,100698.69
2022-08-02T23:36:39.682Z,100698.80
2022-08-02T23:39:10.383Z,100696.96
2022-08-02T23:41:41.006Z,100700.67
2022-08-02T23:44:14.167Z,100702.38
2022-08-02T23:46:46.296Z,100703.13
2022-08-02T23:49:17.237Z,100709.09
2022-08-02T23:51:48.100Z,100710.33
2022-08-02T23:54:18.860Z,100711.06
2022-08-02T23:56:49.645Z,100707.31
2022-08-02T23:59:20.334Z,100702.65
